Time;durP1;ratioP1;P1;durP2;ratioP2;P2;SDS_P1;SDS_P2;PMS_P1;PMS_P2;Temp;Humidity;BMP_temperature;BMP_pressure;BME280_temperature;BME280_humidity;BME280_pressure;Samples;Min_cycle;Max_cycle;Signal;HPM_P1;HPM_P2
2021/12/09 00:01:58;;;;;;;5.40;2.95;;;5.60;88.80;;;;;;10827395;33;20024;-71
2021/12/09 00:08:01;;;;;;;5.60;3.62;;;5.50;88.80;;;;;;10824679;33;20053;-70
2021/12/09 00:14:03;;;;;;;6.25;3.33;;;5.50;88.80;;;;;;10827096;32;20070;-71
2021/12/09 00:20:06;;;;;;;7.37;5.03;;;5.50;88.70;;;;;;10827083;32;20376;-71
2021/12/09 00:26:08;;;;;;;6.87;4.65;;;5.50;88.70;;;;;;10827044;33;20047;-71
2021/12/09 00:32:11;;;;;;;6.65;4.10;;;5.50;88.70;;;;;;10825670;32;20336;-71
2021/12/09 00:38:21;;;;;;;5.65;3.85;;;5.50;88.60;;;;;;10826556;32;20044;-71
2021/12/09 00:44:23;;;;;;;6.45;3.83;;;5.50;88.60;;;;;;10826190;33;20016;-71
2021/12/09 00:50:26;;;;;;;6.93;3.97;;;5.50;88.60;;;;;;10823800;33;20408;-71
2021/12/09 00:56:28;;;;;;;3.87;2.40;;;5.50;88.60;;;;;;10822011;33;20027;-71
2021/12/09 01:02:30;;;;;;;4.05;2.55;;;5.50;88.70;;;;;;10812758;33;20027;-71
2021/12/09 01:08:32;;;;;;;4.45;1.75;;;5.50;88.70;;;;;;10825705;33;20047;-71
2021/12/09 01:14:37;;;;;;;6.93;4.12;;;5.60;88.70;;;;;;10825398;33;20061;-71
2021/12/09 01:20:39;;;;;;;6.10;3.85;;;5.50;88.50;;;;;;10825193;33;20027;-70
2021/12/09 01:26:41;;;;;;;4.07;2.67;;;5.40;88.40;;;;;;10822123;32;20410;-71
2021/12/09 01:32:51;;;;;;;6.60;3.47;;;5.40;88.40;;;;;;10825081;33;20032;-71
2021/12/09 01:38:54;;;;;;;5.78;3.87;;;5.40;88.50;;;;;;10811812;32;20062;-71
2021/12/09 01:44:56;;;;;;;9.57;6.70;;;5.40;88.40;;;;;;10827515;27;20028;-71
2021/12/09 01:50:58;;;;;;;7.75;5.57;;;5.40;88.50;;;;;;10824622;32;20058;-70
2021/12/09 01:57:00;;;;;;;10.98;7.05;;;5.40;88.50;;;;;;10824400;32;20031;-70
2021/12/09 02:03:03;;;;;;;9.25;5.43;;;5.40;88.40;;;;;;10824399;32;20395;-70
2021/12/09 02:09:05;;;;;;;8.20;5.43;;;5.40;88.40;;;;;;10824172;33;20051;-70
2021/12/09 02:15:09;;;;;;;8.23;3.87;;;5.40;88.40;;;;;;10823874;33;20024;-70
2021/12/09 02:21:32;;;;;;;7.22;4.50;;;5.40;88.40;;;;;;10823928;33;20035;-71
2021/12/09 02:27:34;;;;;;;8.02;5.32;;;5.40;88.40;;;;;;10820681;32;20400;-70
2021/12/09 02:33:37;;;;;;;10.25;7.50;;;5.40;88.30;;;;;;10823465;33;20035;-70
2021/12/09 02:39:41;;;;;;;9.93;6.57;;;5.50;88.30;;;;;;10823378;33;20016;-70
2021/12/09 02:45:51;;;;;;;7.90;5.47;;;5.50;88.30;;;;;;10823296;32;20062;-70
2021/12/09 02:51:55;;;;;;;10.15;6.68;;;5.50;88.30;;;;;;10823281;33;20068;-71
2021/12/09 02:58:02;;;;;;;8.27;5.68;;;5.50;88.30;;;;;;10827520;32;20047;-70
2021/12/09 03:04:05;;;;;;;8.95;6.00;;;5.50;88.30;;;;;;10829267;33;20038;-71
2021/12/09 03:10:21;;;;;;;12.15;8.75;;;5.50;88.30;;;;;;10829030;33;20016;-70
2021/12/09 03:16:23;;;;;;;8.88;5.72;;;5.50;88.30;;;;;;10824802;33;20055;-70
2021/12/09 03:22:26;;;;;;;12.77;9.02;;;5.50;88.30;;;;;;10828799;33;20028;-70
2021/12/09 03:28:28;;;;;;;11.30;8.90;;;5.40;88.40;;;;;;10827845;33;20050;-70
2021/12/09 03:34:32;;;;;;;11.88;10.48;;;5.40;88.50;;;;;;10828314;32;20438;-70
2021/12/09 03:40:34;;;;;;;11.57;9.10;;;5.40;88.60;;;;;;10828183;33;20392;-70
2021/12/09 03:46:37;;;;;;;14.43;9.75;;;5.40;88.60;;;;;;10827877;33;20028;-70
2021/12/09 03:52:40;;;;;;;17.52;9.88;;;5.30;88.70;;;;;;10827803;33;20054;-70
2021/12/09 03:58:42;;;;;;;23.23;14.27;;;5.30;88.70;;;;;;10827652;33;20054;-71
2021/12/09 04:04:44;;;;;;;15.50;11.63;;;5.30;88.70;;;;;;10825445;32;20032;-70
2021/12/09 04:10:54;;;;;;;13.30;9.75;;;5.30;88.60;;;;;;10827317;33;20028;-71
2021/12/09 04:16:56;;;;;;;15.23;12.13;;;5.30;88.60;;;;;;10827159;32;20035;-70
2021/12/09 04:22:59;;;;;;;16.05;12.68;;;5.30;88.60;;;;;;10826890;32;20046;-70
2021/12/09 04:29:06;;;;;;;17.58;11.65;;;5.30;88.40;;;;;;10826781;33;20046;-71
2021/12/09 04:35:10;;;;;;;13.05;9.43;;;5.30;88.40;;;;;;10826611;33;20408;-70
2021/12/09 04:41:12;;;;;;;18.23;11.95;;;5.30;88.40;;;;;;10826448;33;20015;-70
2021/12/09 04:47:14;;;;;;;15.13;12.05;;;5.20;88.40;;;;;;10826320;33;20343;-71
2021/12/09 04:53:16;;;;;;;26.33;21.73;;;5.30;88.50;;;;;;10826054;33;20047;-71
2021/12/09 04:59:18;;;;;;;22.33;17.27;;;5.30;88.40;;;;;;10825998;33;20302;-70
2021/12/09 05:05:20;;;;;;;20.33;15.43;;;5.20;88.40;;;;;;10825913;33;20038;-71
2021/12/09 05:11:34;;;;;;;22.90;16.87;;;5.20;88.50;;;;;;10825654;32;20028;-71
2021/12/09 05:17:36;;;;;;;22.20;17.25;;;5.10;88.40;;;;;;10824969;32;20032;-71
2021/12/09 05:23:41;;;;;;;18.75;15.18;;;5.10;88.40;;;;;;10825333;33;20016;-71
2021/12/09 05:29:44;;;;;;;26.00;20.33;;;5.20;88.50;;;;;;10824997;33;20059;-71
2021/12/09 05:35:46;;;;;;;17.30;12.90;;;5.30;88.40;;;;;;10824895;33;20024;-71
2021/12/09 05:41:49;;;;;;;14.15;10.57;;;5.30;88.40;;;;;;10824608;32;20376;-71
2021/12/09 05:47:51;;;;;;;12.95;9.77;;;5.40;88.30;;;;;;10821122;33;20024;-71
2021/12/09 05:53:55;;;;;;;13.15;9.30;;;5.40;88.30;;;;;;10824570;32;20067;-71
2021/12/09 05:59:57;;;;;;;15.73;12.30;;;5.50;88.40;;;;;;10824347;33;20047;-71
2021/12/09 06:05:59;;;;;;;14.25;10.18;;;5.60;88.30;;;;;;10821153;33;20047;-71
2021/12/09 06:12:04;;;;;;;15.05;10.45;;;5.70;87.90;;;;;;10823970;33;20032;-71
2021/12/09 06:18:06;;;;;;;26.52;20.58;;;5.60;87.80;;;;;;10823926;33;20012;-70
2021/12/09 06:24:08;;;;;;;21.85;16.40;;;5.50;87.90;;;;;;10824063;33;20472;-70
2021/12/09 06:30:11;;;;;;;14.35;11.05;;;5.50;88.20;;;;;;10825001;32;20043;-70
2021/12/09 06:36:13;;;;;;;13.80;9.52;;;5.40;88.10;;;;;;10829807;33;20055;-70
2021/12/09 06:42:17;;;;;;;15.88;13.20;;;5.70;88.40;;;;;;10826193;32;20024;-70
2021/12/09 06:48:51;;;;;;;28.87;22.27;;;5.80;87.90;;;;;;10829865;32;20024;-70
2021/12/09 06:54:53;;;;;;;21.50;14.57;;;6.00;88.10;;;;;;10828602;33;20344;-70
2021/12/09 07:00:57;;;;;;;14.52;10.70;;;6.00;87.70;;;;;;10829189;33;20332;-70
2021/12/09 07:07:05;;;;;;;16.37;12.80;;;5.90;88.00;;;;;;10825940;33;20400;-70
2021/12/09 07:13:07;;;;;;;14.93;10.17;;;6.10;87.90;;;;;;10828326;33;20320;-70
2021/12/09 07:19:10;;;;;;;22.33;16.83;;;6.00;87.60;;;;;;10828379;33;20343;-70
2021/12/09 07:25:12;;;;;;;17.08;10.30;;;5.90;87.80;;;;;;10828482;33;20024;-70
2021/12/09 07:31:16;;;;;;;15.23;9.90;;;5.80;87.80;;;;;;10828040;33;20071;-70
2021/12/09 07:37:22;;;;;;;15.48;9.30;;;5.70;87.80;;;;;;10827947;33;20036;-70
2021/12/09 07:43:24;;;;;;;13.93;11.15;;;5.60;87.90;;;;;;10827529;32;20063;-70
2021/12/09 07:49:26;;;;;;;18.40;13.75;;;5.60;87.90;;;;;;10827797;33;20024;-70
2021/12/09 07:55:29;;;;;;;20.88;14.38;;;5.60;88.00;;;;;;10827621;33;20029;-70
2021/12/09 08:01:31;;;;;;;17.08;11.80;;;5.60;88.00;;;;;;10826550;33;20046;-70
2021/12/09 08:07:33;;;;;;;22.45;15.98;;;5.70;87.90;;;;;;10814167;33;20062;-70
2021/12/09 08:13:35;;;;;;;19.15;13.38;;;5.70;87.80;;;;;;10827032;33;20054;-70
2021/12/09 08:26:10;;;;;;;26.83;21.20;;;5.70;88.00;;;;;;10826878;33;20327;-70
2021/12/09 08:32:11;;;;;;;20.65;14.80;;;5.80;88.10;;;;;;10826518;33;20060;-70
2021/12/09 08:38:14;;;;;;;28.20;17.73;;;5.90;88.00;;;;;;10826404;33;20086;-70
2021/12/09 08:44:16;;;;;;;26.55;18.83;;;5.80;87.70;;;;;;10824726;33;20028;-70
2021/12/09 08:50:22;;;;;;;23.33;17.80;;;5.60;87.70;;;;;;10824912;33;20020;-70
2021/12/09 08:56:24;;;;;;;20.23;13.98;;;5.60;88.00;;;;;;10825107;32;20050;-70
2021/12/09 09:02:27;;;;;;;29.08;21.00;;;5.80;88.40;;;;;;10825423;33;20042;-70
2021/12/09 09:08:29;;;;;;;24.10;16.17;;;6.20;88.00;;;;;;10821910;33;20328;-70
2021/12/09 09:14:31;;;;;;;19.52;12.85;;;6.10;87.30;;;;;;10825413;33;20059;-75
2021/12/09 09:20:39;;;;;;;27.02;19.00;;;5.90;87.70;;;;;;10821301;33;20058;-76
2021/12/09 09:26:41;;;;;;;22.27;15.60;;;5.90;87.70;;;;;;10824604;33;20028;-76
2021/12/09 09:32:50;;;;;;;21.48;15.25;;;5.70;87.70;;;;;;10820835;33;20031;-77
2021/12/09 09:38:58;;;;;;;14.43;11.10;;;6.00;88.60;;;;;;10823019;33;20016;-76
2021/12/09 09:45:01;;;;;;;17.62;12.68;;;6.20;87.90;;;;;;10827713;27;20438;-76
2021/12/09 09:51:04;;;;;;;18.83;12.95;;;6.30;87.80;;;;;;10824158;33;20046;-77
2021/12/09 09:57:32;;;;;;;21.62;15.70;;;6.40;88.00;;;;;;10826058;33;20051;-77
2021/12/09 10:03:41;;;;;;;15.07;12.37;;;6.60;87.80;;;;;;10833893;32;20412;-77
2021/12/09 10:09:44;;;;;;;20.52;15.43;;;7.10;88.00;;;;;;10829325;33;20020;-77
2021/12/09 10:15:49;;;;;;;18.27;12.77;;;7.00;86.90;;;;;;10839198;33;20027;-77
2021/12/09 10:22:11;;;;;;;14.60;11.00;;;6.60;87.30;;;;;;10834650;33;20027;-77
2021/12/09 10:28:23;;;;;;;17.27;12.88;;;6.60;87.70;;;;;;10834263;33;20168;-77
2021/12/09 10:34:36;;;;;;;17.40;11.25;;;6.70;87.60;;;;;;10830690;33;20047;-77
2021/12/09 10:40:38;;;;;;;16.60;12.25;;;6.50;87.40;;;;;;10837684;33;20011;-77
2021/12/09 10:46:49;;;;;;;15.93;11.00;;;6.30;87.60;;;;;;10830088;33;20042;-77
2021/12/09 10:53:03;;;;;;;12.75;8.48;;;6.40;88.00;;;;;;10828860;33;20031;-77
2021/12/09 10:59:05;;;;;;;12.52;8.02;;;6.70;87.90;;;;;;10846871;33;20036;-77
2021/12/09 11:05:08;;;;;;;13.68;9.25;;;6.60;87.60;;;;;;10865320;33;20027;-77
2021/12/09 11:11:51;;;;;;;11.77;7.87;;;6.60;87.80;;;;;;10848360;33;20016;-76
2021/12/09 11:17:54;;;;;;;10.50;6.62;;;6.90;88.00;;;;;;10794174;33;20037;-76
2021/12/09 11:24:00;;;;;;;11.18;7.30;;;6.90;87.60;;;;;;10792151;33;20012;-76
2021/12/09 11:30:12;;;;;;;9.60;6.05;;;6.90;87.40;;;;;;10791715;33;20058;-76
2021/12/09 11:36:39;;;;;;;14.45;10.48;;;6.70;87.60;;;;;;10791453;33;20008;-75
2021/12/09 11:48:48;;;;;;;12.18;7.05;;;7.20;87.50;;;;;;10793609;33;20047;-75
2021/12/09 12:28:03;;;;;;;5.28;3.17;;;9.30;85.00;;;;;;10826628;32;20055;-74
2021/12/09 12:34:23;;;;;;;3.92;2.00;;;9.40;85.00;;;;;;10826653;33;20024;-74
2021/12/09 12:40:44;;;;;;;2.65;1.42;;;9.50;85.00;;;;;;10826493;33;20404;-74
2021/12/09 12:46:55;;;;;;;6.00;2.17;;;9.60;84.70;;;;;;10826300;33;20020;-74
2021/12/09 12:53:37;;;;;;;2.92;1.48;;;9.50;84.60;;;;;;10825569;33;20039;-74
2021/12/09 12:59:43;;;;;;;5.30;2.30;;;9.60;84.60;;;;;;10825907;33;20024;-73
2021/12/09 13:05:57;;;;;;;2.72;1.80;;;9.50;84.50;;;;;;10825651;33;20025;-73
2021/12/09 13:12:05;;;;;;;2.65;1.77;;;9.30;84.60;;;;;;10825577;33;20062;-73
2021/12/09 13:18:18;;;;;;;3.92;2.30;;;9.20;85.10;;;;;;10825479;33;20395;-74
2021/12/09 13:24:32;;;;;;;4.65;2.33;;;9.30;84.70;;;;;;10825203;33;20046;-74
2021/12/09 13:31:10;;;;;;;4.97;2.67;;;9.60;84.70;;;;;;10824953;33;20410;-73
2021/12/09 13:56:10;;;;;;;3.97;2.62;;;9.70;83.90;;;;;;10824478;33;20207;-70
2021/12/09 14:02:17;;;;;;;3.55;2.33;;;9.60;83.70;;;;;;10824492;33;20431;-70
2021/12/09 14:08:45;;;;;;;6.15;3.65;;;9.60;83.60;;;;;;10811240;33;20020;-70
2021/12/09 14:15:00;;;;;;;5.60;3.67;;;9.50;83.60;;;;;;10675315;33;20432;-70
2021/12/09 14:21:03;;;;;;;8.48;4.80;;;9.50;83.70;;;;;;10673303;33;20037;-70
2021/12/09 14:27:17;;;;;;;5.40;2.83;;;9.50;83.40;;;;;;10674178;33;20056;-70
2021/12/09 14:33:19;;;;;;;6.47;3.85;;;9.40;83.40;;;;;;10674849;33;20060;-70
2021/12/09 14:39:22;;;;;;;7.30;3.42;;;9.20;83.60;;;;;;10673561;33;20029;-70
2021/12/09 14:45:30;;;;;;;5.93;4.03;;;9.20;83.70;;;;;;10775051;32;20475;-70
2021/12/09 14:51:33;;;;;;;5.87;4.18;;;8.90;83.70;;;;;;10784166;33;20020;-70
2021/12/09 14:57:50;;;;;;;4.72;2.85;;;8.70;83.90;;;;;;10792634;33;20063;-70
2021/12/09 15:04:03;;;;;;;6.15;4.00;;;8.70;84.20;;;;;;10779470;33;20043;-70
2021/12/09 15:10:12;;;;;;;4.47;2.70;;;8.60;84.60;;;;;;10792449;33;20060;-70
2021/12/09 15:16:26;;;;;;;4.95;3.08;;;8.70;84.20;;;;;;10792239;33;20063;-70
2021/12/09 15:23:07;;;;;;;7.18;4.35;;;8.30;84.30;;;;;;10791601;33;20024;-70
2021/12/09 15:29:21;;;;;;;6.82;4.53;;;8.30;84.90;;;;;;10831418;32;20348;-70
2021/12/09 15:35:25;;;;;;;8.98;6.65;;;8.40;84.60;;;;;;10829811;32;20047;-69
2021/12/09 15:41:31;;;;;;;9.93;7.40;;;8.20;84.50;;;;;;10829810;32;20024;-69
2021/12/09 15:47:36;;;;;;;9.50;7.80;;;7.80;84.60;;;;;;10829727;32;20059;-70
2021/12/09 15:54:08;;;;;;;10.57;5.93;;;7.70;85.10;;;;;;10829300;32;20050;-69
2021/12/09 16:00:15;;;;;;;7.87;5.35;;;7.50;85.00;;;;;;10824362;33;20031;-70
2021/12/09 16:06:18;;;;;;;8.48;5.55;;;7.40;85.40;;;;;;10828439;32;20113;-70
2021/12/09 16:12:26;;;;;;;13.50;7.35;;;7.30;85.50;;;;;;10827428;33;20016;-69
2021/12/09 16:18:37;;;;;;;16.05;9.05;;;7.20;85.50;;;;;;10827221;32;20031;-70
2021/12/09 16:24:39;;;;;;;25.98;19.37;;;7.10;85.60;;;;;;10827092;33;20027;-69
2021/12/09 16:30:41;;;;;;;32.97;24.12;;;7.10;85.50;;;;;;10825745;33;20020;-69
2021/12/09 16:36:43;;;;;;;23.38;17.10;;;6.90;85.80;;;;;;10809402;32;20074;-69
2021/12/09 16:42:47;;;;;;;23.10;18.52;;;6.70;86.10;;;;;;10431872;33;12676900;-70
2021/12/09 16:48:49;;;;;;;25.00;15.70;;;6.70;86.20;;;;;;10749247;33;20066;-70
2021/12/09 16:54:53;;;;;;;24.37;18.98;;;6.70;86.20;;;;;;10749255;33;20056;-70
2021/12/09 17:00:55;;;;;;;23.30;16.67;;;6.70;86.00;;;;;;10749083;33;20090;-70
2021/12/09 17:06:58;;;;;;;25.05;17.23;;;6.60;86.10;;;;;;10749116;33;20051;-70
2021/12/09 17:13:01;;;;;;;36.88;22.75;;;6.50;86.20;;;;;;10818542;32;20101;-70
2021/12/09 17:19:03;;;;;;;22.20;17.12;;;6.50;86.30;;;;;;10825536;33;20015;-70
2021/12/09 17:25:06;;;;;;;29.60;19.67;;;6.50;86.50;;;;;;10825269;33;20078;-70
2021/12/09 17:31:09;;;;;;;23.80;15.48;;;6.60;86.20;;;;;;10822803;33;20054;-70
2021/12/09 17:37:11;;;;;;;20.17;13.38;;;6.70;86.30;;;;;;10824797;33;20031;-69
2021/12/09 17:43:14;;;;;;;28.30;17.42;;;6.70;86.20;;;;;;10816448;27;20027;-70
2021/12/09 17:49:16;;;;;;;26.73;18.15;;;6.70;86.40;;;;;;10824872;33;20051;-70
2021/12/09 17:55:19;;;;;;;20.23;14.02;;;6.70;86.00;;;;;;10824255;33;20047;-70
2021/12/09 18:01:21;;;;;;;25.65;14.52;;;6.60;86.10;;;;;;10824273;33;20046;-70
2021/12/09 18:07:23;;;;;;;18.45;11.85;;;6.60;86.50;;;;;;10824577;32;20384;-70
2021/12/09 18:13:25;;;;;;;15.18;9.27;;;6.70;86.40;;;;;;10797090;33;20444;-70
2021/12/09 18:19:28;;;;;;;14.10;9.30;;;6.70;86.40;;;;;;10787404;33;20012;-70
2021/12/09 18:25:30;;;;;;;23.65;11.45;;;6.70;86.40;;;;;;10789163;33;20032;-70
2021/12/09 18:31:33;;;;;;;17.70;11.45;;;6.80;86.10;;;;;;10789943;33;20020;-70
2021/12/09 18:37:46;;;;;;;21.52;13.23;;;6.90;86.50;;;;;;10790541;33;20063;-70
2021/12/09 18:43:50;;;;;;;18.42;11.02;;;6.90;86.00;;;;;;10806967;33;20016;-70
2021/12/09 18:49:52;;;;;;;18.12;9.73;;;6.90;86.40;;;;;;10811795;33;20035;-70
2021/12/09 18:55:54;;;;;;;15.95;9.93;;;7.10;86.30;;;;;;10829579;33;20388;-72
2021/12/09 19:01:57;;;;;;;16.35;9.73;;;7.20;86.30;;;;;;10816254;33;20047;-72
2021/12/09 19:08:02;;;;;;;17.95;11.45;;;7.10;86.40;;;;;;10828927;33;20012;-72
2021/12/09 19:14:04;;;;;;;12.25;7.90;;;7.10;86.50;;;;;;10828790;33;20027;-72
2021/12/09 19:20:07;;;;;;;13.43;10.18;;;7.20;86.30;;;;;;10828915;33;20031;-72
2021/12/09 19:26:11;;;;;;;23.45;14.85;;;7.40;86.40;;;;;;10828784;33;20027;-72
2021/12/09 19:32:13;;;;;;;17.73;11.23;;;7.20;86.10;;;;;;10828497;33;20376;-72
2021/12/09 19:38:15;;;;;;;21.00;13.20;;;7.10;86.30;;;;;;10827875;32;20055;-72
2021/12/09 19:44:17;;;;;;;18.20;12.20;;;7.00;86.30;;;;;;10828153;33;20016;-72
2021/12/09 19:50:23;;;;;;;29.52;17.95;;;7.10;86.60;;;;;;10828177;33;20020;-73
2021/12/09 19:56:25;;;;;;;29.85;20.92;;;7.10;86.10;;;;;;10828232;33;20042;-73
2021/12/09 20:02:27;;;;;;;23.02;15.05;;;6.90;86.00;;;;;;10828940;33;20027;-70
2021/12/09 20:08:33;;;;;;;17.08;13.07;;;6.80;86.10;;;;;;10814490;33;20415;-69
2021/12/09 20:14:36;;;;;;;26.50;16.77;;;6.80;86.30;;;;;;10827406;33;20086;-69
2021/12/09 20:20:38;;;;;;;23.00;12.80;;;6.70;86.30;;;;;;10827830;33;20375;-69
2021/12/09 20:26:40;;;;;;;21.83;16.42;;;6.90;86.60;;;;;;10827163;32;20376;-69
2021/12/09 20:32:42;;;;;;;17.20;11.38;;;6.80;86.00;;;;;;10826945;33;20012;-69
2021/12/09 20:38:46;;;;;;;17.25;11.45;;;6.80;86.20;;;;;;10826627;32;20063;-71
2021/12/09 20:44:48;;;;;;;20.55;11.95;;;6.80;86.30;;;;;;10826551;33;20335;-71
2021/12/09 20:50:52;;;;;;;18.25;10.68;;;6.90;86.30;;;;;;10825429;32;20023;-71
2021/12/09 20:56:54;;;;;;;23.42;13.93;;;6.90;86.30;;;;;;10826077;33;20047;-71
2021/12/09 21:03:02;;;;;;;16.42;11.05;;;6.70;86.40;;;;;;10826075;33;20431;-69
2021/12/09 21:09:06;;;;;;;15.02;9.45;;;6.70;86.50;;;;;;10809852;33;20430;-71
2021/12/09 21:15:10;;;;;;;15.18;8.55;;;6.70;86.50;;;;;;10825757;32;20028;-71
2021/12/09 21:21:14;;;;;;;16.52;9.80;;;6.70;86.60;;;;;;10825575;32;20380;-71
2021/12/09 21:27:21;;;;;;;13.90;8.02;;;6.80;86.30;;;;;;10825226;33;20051;-71
2021/12/09 21:33:38;;;;;;;13.77;7.93;;;6.70;86.40;;;;;;10825044;33;20048;-71
2021/12/09 21:39:40;;;;;;;18.00;11.40;;;6.60;86.50;;;;;;10823820;33;20020;-71
2021/12/09 21:45:42;;;;;;;17.50;11.80;;;6.80;86.50;;;;;;10808742;33;20064;-71
2021/12/09 21:51:45;;;;;;;14.32;8.75;;;6.80;86.20;;;;;;10824802;33;20032;-71
2021/12/09 21:57:49;;;;;;;14.93;10.38;;;6.80;86.40;;;;;;10824569;33;20388;-71
2021/12/09 22:04:12;;;;;;;15.60;10.55;;;6.70;86.20;;;;;;10830065;32;20024;-71
2021/12/09 22:10:15;;;;;;;15.13;10.65;;;6.60;86.40;;;;;;10831086;33;20015;-71
2021/12/09 22:16:23;;;;;;;16.05;11.30;;;6.60;86.40;;;;;;10830773;33;20032;-71
2021/12/09 22:22:33;;;;;;;14.63;8.75;;;6.70;86.20;;;;;;10830673;33;20020;-71
2021/12/09 22:28:35;;;;;;;13.88;8.73;;;6.80;86.00;;;;;;10830551;33;20042;-71
2021/12/09 22:34:38;;;;;;;16.00;9.85;;;6.90;85.70;;;;;;10830281;33;20020;-71
2021/12/09 22:40:40;;;;;;;16.27;11.02;;;6.90;85.50;;;;;;10826252;33;20028;-70
2021/12/09 22:46:43;;;;;;;14.68;9.27;;;6.70;85.60;;;;;;10829967;32;20035;-71
2021/12/09 22:52:47;;;;;;;16.90;10.85;;;6.50;85.70;;;;;;10829847;32;20020;-71
2021/12/09 22:58:49;;;;;;;18.83;13.00;;;6.50;85.90;;;;;;10829617;33;20384;-71
2021/12/09 23:04:51;;;;;;;12.57;8.68;;;6.30;85.90;;;;;;10829318;33;20028;-71
2021/12/09 23:10:55;;;;;;;14.95;9.57;;;6.20;85.90;;;;;;10828570;32;20348;-71
2021/12/09 23:17:01;;;;;;;15.82;9.88;;;6.00;86.20;;;;;;10829074;33;20046;-71
2021/12/09 23:23:10;;;;;;;20.20;13.00;;;5.90;86.20;;;;;;10812787;33;20044;-71
2021/12/09 23:29:12;;;;;;;20.15;13.00;;;5.90;86.40;;;;;;10828943;33;20046;-71
2021/12/09 23:35:14;;;;;;;18.37;11.90;;;6.20;86.20;;;;;;10825651;32;20324;-71
2021/12/09 23:41:16;;;;;;;18.23;13.00;;;6.50;85.90;;;;;;10828327;33;20063;-71
2021/12/09 23:47:18;;;;;;;17.90;9.90;;;6.70;85.70;;;;;;10828300;33;20042;-71
2021/12/09 23:53:21;;;;;;;17.52;9.70;;;6.50;85.60;;;;;;10828057;32;20383;-71
2021/12/09 23:59:24;;;;;;;14.05;8.15;;;6.60;85.80;;;;;;10827892;33;20008;-71
